createdAt,value
2023-04-08T00:04:43.357Z,98385.81
2023-04-08T00:09:45.445Z,98386.31
2023-04-08T00:14:47.195Z,98373.22
2023-04-08T00:19:48.861Z,98377.91
2023-04-08T00:24:50.669Z,98375.66
2023-04-08T00:29:52.341Z,98367.50
2023-04-08T00:34:54.099Z,98367.34
2023-04-08T00:39:55.729Z,98360.06
2023-04-08T00:44:57.379Z,98371.03
2023-04-08T00:49:59.210Z,98364.41
2023-04-08T00:55:01.070Z,98360.91
2023-04-08T01:00:07.881Z,98369.63
2023-04-08T01:05:12.845Z,98369.16
2023-04-08T01:10:22.288Z,98363.25
2023-04-08T01:15:29.769Z,98360.28
2023-04-08T01:20:32.025Z,98359.03
2023-04-08T01:25:36.716Z,98353.91
2023-04-08T01:30:40.606Z,98347.91
2023-04-08T01:35:42.775Z,98352.66
2023-04-08T01:40:45.041Z,98344.72
2023-04-08T01:45:49.723Z,98348.72
2023-04-08T01:50:53.000Z,98342.94
2023-04-08T01:56:03.977Z,98343.19
2023-04-08T02:01:12.652Z,98340.28
2023-04-08T02:06:14.495Z,98345.50
2023-04-08T02:11:16.494Z,98347.63
2023-04-08T02:17:02.003Z,98351.13
2023-04-08T02:22:09.725Z,98345.13
2023-04-08T02:27:11.801Z,98343.25
2023-04-08T02:32:15.482Z,98347.47
2023-04-08T02:37:17.286Z,98346.09
2023-04-08T02:42:18.896Z,98356.88
2023-04-08T02:47:20.850Z,98348.09
2023-04-08T02:52:22.533Z,98355.00
2023-04-08T02:57:24.116Z,98355.16
2023-04-08T03:02:25.764Z,98355.00
2023-04-08T03:07:27.836Z,98357.75
2023-04-08T03:12:29.492Z,98364.78
2023-04-08T03:17:33.976Z,98360.53
2023-04-08T03:22:36.657Z,98350.53
2023-04-08T03:27:38.308Z,98359.44
2023-04-08T03:32:40.069Z,98351.28
2023-04-08T03:37:41.725Z,98354.84
2023-04-08T03:42:43.454Z,98365.28
2023-04-08T03:47:45.066Z,98373.81
2023-04-08T03:52:46.691Z,98375.44
2023-04-08T03:57:48.393Z,98379.00
2023-04-08T04:02:50.034Z,98385.53
2023-04-08T04:07:51.765Z,98390.13
2023-04-08T04:12:53.369Z,98404.97
2023-04-08T04:17:54.996Z,98401.22
2023-04-08T04:22:56.591Z,98406.06
2023-04-08T04:27:58.304Z,98412.38
2023-04-08T04:32:59.928Z,98416.88
2023-04-08T04:38:01.704Z,98420.53
2023-04-08T04:43:03.296Z,98406.88
2023-04-08T04:48:05.197Z,98421.44
2023-04-08T04:53:06.825Z,98426.25
2023-04-08T04:58:08.427Z,98436.25
2023-04-08T05:03:10.646Z,98441.59
2023-04-08T05:08:12.500Z,98450.53
2023-04-08T05:13:14.170Z,98451.34
2023-04-08T05:18:15.777Z,98451.41
2023-04-08T05:23:17.493Z,98453.16
2023-04-08T05:28:19.090Z,98459.22
2023-04-08T05:33:21.186Z,98466.47
2023-04-08T05:38:22.791Z,98469.41
2023-04-08T05:43:24.722Z,98476.09
2023-04-08T05:48:26.340Z,98482.09
2023-04-08T05:53:28.095Z,98487.38
2023-04-08T05:58:29.708Z,98480.94
2023-04-08T06:03:31.410Z,98489.78
2023-04-08T06:08:33.062Z,98485.94
2023-04-08T06:13:34.633Z,98488.47
2023-04-08T06:18:36.226Z,98489.66
2023-04-08T06:23:39.038Z,98502.75
2023-04-08T06:28:40.934Z,98496.19
2023-04-08T06:33:42.524Z,98507.47
2023-04-08T06:38:44.083Z,98515.41
2023-04-08T06:43:45.691Z,98515.59
2023-04-08T06:48:47.347Z,98519.91
2023-04-08T06:53:49.193Z,98522.97
2023-04-08T06:58:51.190Z,98523.09
2023-04-08T07:03:53.013Z,98531.53
2023-04-08T07:08:54.661Z,98538.00
2023-04-08T07:13:56.321Z,98550.41
2023-04-08T07:18:58.543Z,98559.22
2023-04-08T07:24:00.308Z,98560.00
2023-04-08T07:29:01.882Z,98556.75
2023-04-08T07:34:03.537Z,98562.09
2023-04-08T07:39:05.601Z,98572.50
2023-04-08T07:44:07.681Z,98580.03
2023-04-08T07:49:10.158Z,98582.59
2023-04-08T07:54:12.658Z,98591.94
2023-04-08T07:59:14.245Z,98590.03
2023-04-08T08:04:16.236Z,98592.84
2023-04-08T08:09:17.932Z,98606.22
2023-04-08T08:14:19.591Z,98604.25
2023-04-08T08:19:21.505Z,98602.41
2023-04-08T08:24:23.176Z,98609.13
2023-04-08T08:29:25.118Z,98614.13
2023-04-08T08:34:27.152Z,98621.00
2023-04-08T08:39:28.810Z,98628.94
2023-04-08T08:44:30.912Z,98632.13
2023-04-08T08:49:32.516Z,98643.88
2023-04-08T08:54:34.305Z,98647.81
2023-04-08T08:59:36.139Z,98656.06
2023-04-08T09:04:37.826Z,98658.66
2023-04-08T09:09:52.627Z,98668.75
2023-04-08T09:15:07.737Z,98673.75
2023-04-08T09:20:13.877Z,98671.13
2023-04-08T09:25:28.565Z,98675.53
2023-04-08T09:30:32.537Z,98680.44
2023-04-08T09:35:34.227Z,98670.13
2023-04-08T09:40:37.325Z,98685.38
2023-04-08T09:45:42.807Z,98683.06
2023-04-08T09:50:49.658Z,98676.31
2023-04-08T09:55:53.391Z,98687.28
2023-04-08T10:00:55.728Z,98683.88
2023-04-08T10:06:01.354Z,98682.66
2023-04-08T10:11:03.067Z,98691.72
2023-04-08T10:16:20.959Z,98689.41
2023-04-08T10:21:48.693Z,98689.69
2023-04-08T10:26:50.334Z,98686.59
2023-04-08T10:31:52.010Z,98691.72
2023-04-08T10:36:55.801Z,98682.94
2023-04-08T10:41:57.611Z,98686.50
2023-04-08T10:47:01.278Z,98687.38
2023-04-08T10:52:07.473Z,98685.31
2023-04-08T10:57:09.180Z,98688.47
2023-04-08T11:02:15.426Z,98686.16
2023-04-08T11:07:20.167Z,98687.72
2023-04-08T11:12:22.730Z,98694.13
2023-04-08T11:17:24.386Z,98685.69
2023-04-08T11:22:27.338Z,98685.56
2023-04-08T11:27:29.674Z,98679.47
2023-04-08T11:32:31.560Z,98685.56
2023-04-08T11:37:42.627Z,98676.44
2023-04-08T11:42:46.006Z,98686.09
2023-04-08T11:47:49.092Z,98677.88
2023-04-08T11:52:52.685Z,98679.16
2023-04-08T11:57:55.606Z,98677.72
2023-04-08T12:02:57.403Z,98673.31
2023-04-08T12:07:59.292Z,98680.63
2023-04-08T12:13:01.159Z,98668.19
2023-04-08T12:18:02.866Z,98668.56
2023-04-08T12:23:04.469Z,98666.59
2023-04-08T12:28:06.122Z,98671.25
2023-04-08T12:33:07.769Z,98667.47
2023-04-08T12:38:09.454Z,98669.50
2023-04-08T12:43:11.914Z,98677.88
2023-04-08T12:48:13.957Z,98669.88
2023-04-08T12:53:15.766Z,98671.81
2023-04-08T12:58:17.424Z,98668.31
2023-04-08T13:03:19.162Z,98666.47
2023-04-08T13:08:20.782Z,98662.38
2023-04-08T13:13:22.514Z,98662.53
2023-04-08T13:18:24.189Z,98663.97
2023-04-08T13:23:26.056Z,98661.97
2023-04-08T13:28:27.645Z,98667.47
2023-04-08T13:33:29.236Z,98666.16
2023-04-08T13:38:30.876Z,98664.25
2023-04-08T13:43:32.646Z,98666.88
2023-04-08T13:48:34.244Z,98666.34
2023-04-08T13:53:35.917Z,98672.59
2023-04-08T13:58:37.921Z,98671.53
2023-04-08T14:03:39.510Z,98670.16
2023-04-08T14:08:41.578Z,98668.09
2023-04-08T14:13:43.164Z,98663.88
2023-04-08T14:18:44.749Z,98671.03
2023-04-08T14:23:46.826Z,98676.66
2023-04-08T14:28:49.024Z,98677.97
2023-04-08T14:33:50.925Z,98677.19
2023-04-08T14:38:53.019Z,98677.19
2023-04-08T14:43:55.032Z,98676.97
2023-04-08T14:48:56.923Z,98678.88
2023-04-08T14:53:58.703Z,98678.03
2023-04-08T14:59:00.260Z,98685.63
2023-04-08T15:04:02.226Z,98689.47
2023-04-08T15:09:03.909Z,98686.38
2023-04-08T15:14:05.540Z,98690.81
2023-04-08T15:19:07.202Z,98690.88
2023-04-08T15:24:08.778Z,98697.84
2023-04-08T15:29:10.360Z,98703.19
2023-04-08T15:34:11.968Z,98712.13
2023-04-08T15:39:13.592Z,98721.56
2023-04-08T15:44:15.742Z,98729.66
2023-04-08T15:49:17.369Z,98737.59
2023-04-08T15:54:19.298Z,98738.66
2023-04-08T15:59:21.164Z,98741.97
2023-04-08T16:04:23.094Z,98744.66
2023-04-08T16:09:27.073Z,98759.31
2023-04-08T16:14:31.076Z,98758.75
2023-04-08T16:19:32.742Z,98765.44
2023-04-08T16:24:37.416Z,98766.81
2023-04-08T16:29:39.080Z,98782.97
2023-04-08T16:34:40.661Z,98795.59
2023-04-08T16:39:42.356Z,98798.63
2023-04-08T16:44:43.956Z,98803.38
2023-04-08T16:49:45.592Z,98809.69
2023-04-08T16:54:47.626Z,98812.88
2023-04-08T16:59:49.199Z,98816.00
2023-04-08T17:04:51.032Z,98818.81
2023-04-08T17:09:52.790Z,98824.09
2023-04-08T17:14:54.361Z,98832.41
2023-04-08T17:19:55.943Z,98834.38
2023-04-08T17:24:57.584Z,98846.47
2023-04-08T17:29:59.271Z,98846.97
2023-04-08T17:35:01.213Z,98847.75
2023-04-08T17:40:03.086Z,98860.81
2023-04-08T17:45:05.614Z,98872.50
2023-04-08T17:50:09.285Z,98867.22
2023-04-08T17:55:13.818Z,98873.38
2023-04-08T18:00:16.432Z,98883.00
2023-04-08T18:05:18.212Z,98889.41
2023-04-08T18:10:19.917Z,98901.16
2023-04-08T18:15:21.592Z,98903.69
2023-04-08T18:20:23.181Z,98914.00
2023-04-08T18:25:24.860Z,98919.22
2023-04-08T18:30:26.877Z,98923.19
2023-04-08T18:35:28.506Z,98925.91
2023-04-08T18:40:31.427Z,98933.97
2023-04-08T18:45:33.198Z,98944.41
2023-04-08T18:50:35.032Z,98946.25
2023-04-08T18:55:38.734Z,98961.88
2023-04-08T19:00:43.863Z,98964.03
2023-04-08T19:05:46.594Z,98966.38
2023-04-08T19:10:48.136Z,98971.91
2023-04-08T19:15:50.083Z,98977.97
2023-04-08T19:20:51.862Z,98975.38
2023-04-08T19:25:53.558Z,98971.22
2023-04-08T19:30:55.132Z,98987.25
2023-04-08T19:35:57.499Z,98987.25
2023-04-08T19:40:59.195Z,98993.69
2023-04-08T19:46:00.858Z,98993.06
2023-04-08T19:51:03.425Z,99006.34
2023-04-08T19:56:05.091Z,99000.56
2023-04-08T20:01:07.517Z,99013.94
2023-04-08T20:06:09.296Z,99007.78
2023-04-08T20:11:11.409Z,99008.13
2023-04-08T20:16:13.511Z,99003.44
2023-04-08T20:21:15.204Z,99008.84
2023-04-08T20:26:16.886Z,99005.44
2023-04-08T20:31:19.328Z,99010.38
2023-04-08T20:36:22.188Z,99020.22
2023-04-08T20:41:24.489Z,99020.88
2023-04-08T20:46:26.222Z,99023.06
2023-04-08T20:51:27.882Z,99027.03
2023-04-08T20:56:29.609Z,99014.44
2023-04-08T21:01:31.549Z,99025.47
2023-04-08T21:06:33.197Z,99029.28
2023-04-08T21:11:34.894Z,99025.56
2023-04-08T21:16:36.596Z,99022.69
2023-04-08T21:21:38.268Z,99021.84
2023-04-08T21:26:39.900Z,99023.31
2023-04-08T21:31:42.062Z,99019.72
2023-04-08T21:36:43.711Z,99024.47
2023-04-08T21:41:45.307Z,99025.16
2023-04-08T21:46:49.103Z,99033.78
2023-04-08T21:51:50.678Z,99040.38
2023-04-08T21:56:52.275Z,99037.31
2023-04-08T22:01:54.156Z,99030.53
2023-04-08T22:06:56.320Z,99034.19
2023-04-08T22:11:57.945Z,99030.00
2023-04-08T22:16:59.738Z,99032.13
2023-04-08T22:22:01.440Z,99037.03
2023-04-08T22:27:03.864Z,99032.44
2023-04-08T22:32:05.849Z,99032.94
2023-04-08T22:37:07.422Z,99031.66
2023-04-08T22:42:09.001Z,99033.34
2023-04-08T22:47:10.950Z,99035.25
2023-04-08T22:52:12.547Z,99035.47
2023-04-08T22:57:14.207Z,99037.63
2023-04-08T23:02:15.881Z,99042.59
2023-04-08T23:07:17.567Z,99036.63
2023-04-08T23:12:19.178Z,99034.31
2023-04-08T23:17:20.999Z,99039.41
2023-04-08T23:22:22.606Z,99036.72
2023-04-08T23:27:24.187Z,99028.75
2023-04-08T23:32:26.467Z,99028.81
2023-04-08T23:37:29.010Z,99034.13
2023-04-08T23:42:30.688Z,99034.19
2023-04-08T23:47:32.329Z,99034.50
2023-04-08T23:52:33.932Z,99028.91
2023-04-08T23:57:35.564Z,99031.41
